Ansted, West Virginia
Current Conditions -  °F | °C
As of 12:51 AM on Friday 28 Nov 2014 (Local Time) from KBKW Reporting Station
Light Snow Light Snow  
Wind Chill: 12°   Ceiling: 1700
Heat Index: 24°   Visibility: 1.7mi
Dew Point: 20°   Wind: 13mph
Humidity: 84%   Direction: 300°WNW
Pressure: 30.21"   Gusts: NA
Location:  38.14°N, 81.1°W
Report Text: KBKW 280551Z AUTO 30011KT 1 3/4SM -SN BR FEW010 BKN017 OVC038 M04/M07 A3021 RMK AO2 VIS 3/4 RWY19 SLP267 P0000 60000 T10441067 11039 21044 57006
Loading
Personal Weather Stations






























Interactive Weather Map New forecast layout! Learn more

10-Day Weather Forecast

Advertisements
Track Severe Weather on mobile